createdAt,value
2018-04-30T00:02:30.633Z,95409.52
2018-04-30T00:05:53.487Z,95398.41
2018-04-30T00:09:16.315Z,95405.16
2018-04-30T00:12:39.185Z,95386.80
2018-04-30T00:16:02.097Z,95391.41
2018-04-30T00:19:24.937Z,95398.28
2018-04-30T00:22:47.785Z,95383.73
2018-04-30T00:26:10.612Z,95434.27
2018-04-30T00:29:33.483Z,95438.72
2018-04-30T00:32:56.333Z,95448.09
2018-04-30T00:36:19.179Z,95460.38
2018-04-30T00:39:42.026Z,95473.97
2018-04-30T00:43:04.876Z,95468.45
2018-04-30T00:46:27.794Z,95477.67
2018-04-30T00:49:50.639Z,95477.91
2018-04-30T00:53:13.491Z,95485.52
2018-04-30T00:56:36.348Z,95496.70
2018-04-30T00:59:59.188Z,95512.52
2018-04-30T01:03:22.105Z,95518.31
2018-04-30T01:06:45.018Z,95550.80
2018-04-30T01:10:07.873Z,95552.70
2018-04-30T01:13:30.738Z,95560.25
2018-04-30T01:16:53.572Z,95565.02
2018-04-30T01:20:17.446Z,95583.32
2018-04-30T01:23:40.286Z,95560.77
2018-04-30T01:27:03.151Z,95577.80
2018-04-30T01:30:25.992Z,95582.48
2018-04-30T01:33:48.838Z,95590.55
2018-04-30T01:37:11.766Z,95621.38
2018-04-30T01:40:34.605Z,95624.72
2018-04-30T01:43:57.463Z,95630.16
2018-04-30T01:47:20.292Z,95634.95
2018-04-30T01:50:43.133Z,95641.11
2018-04-30T01:54:06.001Z,95640.84
2018-04-30T01:57:28.844Z,95643.59
2018-04-30T02:00:51.693Z,95679.09
2018-04-30T02:04:14.545Z,95695.48
2018-04-30T02:07:37.397Z,95690.70
2018-04-30T02:11:00.249Z,95679.80
2018-04-30T02:14:23.171Z,95671.39
2018-04-30T02:17:47.039Z,95676.17
2018-04-30T02:21:09.962Z,95686.19
2018-04-30T02:24:32.875Z,95677.13
2018-04-30T02:27:55.768Z,95681.60
2018-04-30T02:31:18.629Z,95676.42
2018-04-30T02:34:41.471Z,95677.34
2018-04-30T02:38:04.324Z,95686.56
2018-04-30T02:41:27.167Z,95709.63
2018-04-30T02:44:50.043Z,95703.08
2018-04-30T02:48:12.936Z,95709.33
2018-04-30T02:51:35.806Z,95709.18
2018-04-30T02:54:58.644Z,95713.95
2018-04-30T02:58:21.572Z,95703.70
2018-04-30T03:01:44.476Z,95702.56
2018-04-30T03:05:07.330Z,95709.11
2018-04-30T03:08:30.248Z,95706.28
2018-04-30T03:11:53.112Z,95704.66
2018-04-30T03:15:16.022Z,95703.86
2018-04-30T03:18:38.864Z,95683.19
2018-04-30T03:22:01.741Z,95680.33
2018-04-30T03:25:25.408Z,95684.48
2018-04-30T03:28:48.288Z,95693.73
2018-04-30T03:32:11.138Z,95700.81
2018-04-30T03:35:33.982Z,95700.97
2018-04-30T03:38:56.841Z,95687.98
2018-04-30T03:42:19.712Z,95683.11
2018-04-30T03:45:43.358Z,95702.67
2018-04-30T03:49:06.972Z,95693.23
2018-04-30T03:52:29.850Z,95702.45
2018-04-30T03:55:53.492Z,95718.43
2018-04-30T03:59:17.164Z,95725.70
2018-04-30T04:06:48.941Z,95728.95
2018-04-30T04:10:12.616Z,95711.30
2018-04-30T04:13:35.484Z,95707.28
2018-04-30T04:16:58.398Z,95682.53
2018-04-30T04:20:21.268Z,95672.41
2018-04-30T04:23:44.180Z,95648.91
2018-04-30T04:27:07.104Z,95660.41
2018-04-30T04:30:29.940Z,95687.14
2018-04-30T04:33:53.798Z,95706.98
2018-04-30T04:37:16.735Z,95714.50
2018-04-30T04:40:39.680Z,95720.86
2018-04-30T04:44:03.297Z,95742.59
2018-04-30T04:47:26.247Z,95721.06
2018-04-30T04:50:49.080Z,95716.66
2018-04-30T04:54:13.440Z,95711.54
2018-04-30T04:57:36.297Z,95702.44
2018-04-30T05:00:59.138Z,95691.59
2018-04-30T05:04:22.085Z,95707.50
2018-04-30T05:07:45.694Z,95727.89
2018-04-30T05:11:08.558Z,95734.41
2018-04-30T05:14:31.464Z,95751.04
2018-04-30T05:17:54.302Z,95753.52
2018-04-30T05:21:17.173Z,95745.38
2018-04-30T05:24:40.010Z,95759.45
2018-04-30T05:28:02.868Z,95765.05
2018-04-30T05:31:25.802Z,95756.37
2018-04-30T05:34:49.456Z,95774.50
2018-04-30T05:38:13.090Z,95762.28
2018-04-30T05:41:36.457Z,95751.20
2018-04-30T05:45:00.184Z,95754.67
2018-04-30T05:48:23.115Z,95750.74
2018-04-30T05:51:46.075Z,95750.06
2018-04-30T05:55:08.981Z,95766.64
2018-04-30T05:58:31.868Z,95767.09
2018-04-30T06:01:54.850Z,95769.74
2018-04-30T06:05:17.765Z,95767.49
2018-04-30T06:08:41.683Z,95764.22
2018-04-30T06:12:04.997Z,95770.56
2018-04-30T06:15:28.568Z,95769.70
2018-04-30T06:18:52.979Z,95761.41
2018-04-30T06:22:16.745Z,95759.35
2018-04-30T06:25:40.460Z,95750.28
2018-04-30T06:29:04.138Z,95745.70
2018-04-30T06:32:27.020Z,95737.94
2018-04-30T06:35:49.930Z,95735.98
2018-04-30T06:39:12.808Z,95734.09
2018-04-30T06:42:36.433Z,95737.57
2018-04-30T06:45:59.368Z,95741.95
2018-04-30T06:49:25.058Z,95733.88
2018-04-30T06:52:49.833Z,95723.25
2018-04-30T06:56:12.746Z,95727.84
2018-04-30T06:59:35.652Z,95731.08
2018-04-30T07:02:58.573Z,95742.64
2018-04-30T07:06:21.502Z,95737.30
2018-04-30T07:09:44.436Z,95733.58
2018-04-30T07:13:07.358Z,95742.58
2018-04-30T07:16:30.236Z,95735.41
2018-04-30T07:19:53.886Z,95734.96
2018-04-30T07:23:17.540Z,95733.84
2018-04-30T07:26:40.517Z,95730.66
2018-04-30T07:30:04.161Z,95734.92
2018-04-30T07:33:27.164Z,95732.45
2018-04-30T07:36:50.807Z,95736.00
2018-04-30T07:40:14.452Z,95731.59
2018-04-30T07:43:37.428Z,95734.42
2018-04-30T07:47:00.298Z,95738.26
2018-04-30T07:50:23.925Z,95728.55
2018-04-30T07:53:46.802Z,95732.54
2018-04-30T07:57:10.574Z,95736.23
2018-04-30T08:00:33.423Z,95728.49
2018-04-30T08:03:56.344Z,95720.64
2018-04-30T08:07:19.272Z,95717.36
2018-04-30T08:10:43.678Z,95721.63
2018-04-30T08:14:06.570Z,95717.53
2018-04-30T08:17:30.195Z,95709.00
2018-04-30T08:20:53.061Z,95720.64
2018-04-30T08:24:15.970Z,95750.11
2018-04-30T08:27:38.816Z,95737.80
2018-04-30T08:31:01.693Z,95729.04
2018-04-30T08:34:25.347Z,95720.23
2018-04-30T08:37:48.949Z,95731.28
2018-04-30T08:41:11.801Z,95763.41
2018-04-30T08:44:34.669Z,95773.60
2018-04-30T08:47:57.604Z,95757.03
2018-04-30T08:51:21.306Z,95751.52
2018-04-30T08:54:45.257Z,95793.59
2018-04-30T08:58:08.990Z,95745.92
2018-04-30T09:01:31.917Z,95765.77
2018-04-30T09:04:55.555Z,95766.98
2018-04-30T09:08:19.193Z,95768.87
2018-04-30T09:11:43.887Z,95767.36
2018-04-30T09:15:07.684Z,95779.78
2018-04-30T09:18:30.706Z,95766.77
2018-04-30T09:21:53.709Z,95774.20
2018-04-30T09:25:16.762Z,95775.03
2018-04-30T09:28:39.720Z,95774.47
2018-04-30T09:32:02.659Z,95792.30
2018-04-30T09:35:25.564Z,95782.07
2018-04-30T09:38:49.558Z,95774.82
2018-04-30T09:42:14.448Z,95777.91
2018-04-30T09:45:38.362Z,95779.66
2018-04-30T09:49:01.271Z,95769.16
2018-04-30T09:52:24.285Z,95759.88
2018-04-30T09:55:47.938Z,95766.34
2018-04-30T09:59:11.686Z,95762.75
2018-04-30T10:02:34.547Z,95758.31
2018-04-30T10:05:57.501Z,95766.97
2018-04-30T10:09:21.189Z,95763.72
2018-04-30T10:12:44.096Z,95758.63
2018-04-30T10:16:07.815Z,95762.05
2018-04-30T10:19:30.829Z,95762.05
2018-04-30T10:22:53.706Z,95756.59
2018-04-30T10:26:17.412Z,95744.09
2018-04-30T10:29:40.403Z,95751.58
2018-04-30T10:33:03.246Z,95744.70
2018-04-30T10:40:42.327Z,95743.11
2018-04-30T10:44:06.466Z,95744.19
2018-04-30T10:47:29.370Z,95747.36
2018-04-30T10:50:52.365Z,95735.88
2018-04-30T10:54:15.270Z,95743.39
2018-04-30T10:57:39.345Z,95739.48
2018-04-30T11:01:02.280Z,95745.11
2018-04-30T11:04:25.279Z,95733.48
2018-04-30T11:07:48.202Z,95717.01
2018-04-30T11:11:11.911Z,95723.27
2018-04-30T11:14:45.579Z,95715.17
2018-04-30T11:18:09.340Z,95718.19
2018-04-30T11:21:33.228Z,95730.19
2018-04-30T11:24:56.921Z,95731.59
2018-04-30T11:28:19.921Z,95723.98
2018-04-30T11:31:43.657Z,95721.02
2018-04-30T11:35:08.204Z,95721.78
2018-04-30T11:38:31.201Z,95722.61
2018-04-30T11:41:54.151Z,95726.33
2018-04-30T11:45:17.113Z,95732.66
2018-04-30T11:48:40.988Z,95729.13
2018-04-30T11:52:05.095Z,95744.44
2018-04-30T11:55:28.924Z,95743.22
2018-04-30T11:58:51.795Z,95761.44
2018-04-30T12:02:15.589Z,95761.06
2018-04-30T12:05:40.251Z,95761.09
2018-04-30T12:09:03.119Z,95769.95
2018-04-30T12:12:27.761Z,95779.95
2018-04-30T12:15:50.667Z,95777.72
2018-04-30T12:19:13.584Z,95792.34
2018-04-30T12:22:36.484Z,95788.66
2018-04-30T12:26:00.169Z,95801.08
2018-04-30T12:29:23.068Z,95804.04
2018-04-30T12:32:46.843Z,95810.75
2018-04-30T12:36:10.558Z,95797.91
2018-04-30T12:39:33.407Z,95790.98
2018-04-30T12:42:56.336Z,95799.50
2018-04-30T12:46:19.981Z,95800.16
2018-04-30T12:49:44.359Z,95798.14
2018-04-30T12:53:07.419Z,95802.20
2018-04-30T12:56:31.047Z,95806.46
2018-04-30T12:59:53.925Z,95799.44
2018-04-30T13:03:18.571Z,95784.37
2018-04-30T13:06:41.439Z,95784.29
2018-04-30T13:10:04.329Z,95778.41
2018-04-30T13:13:27.197Z,95781.47
2018-04-30T13:16:51.582Z,95772.25
2018-04-30T13:20:16.386Z,95765.13
2018-04-30T13:23:39.348Z,95763.31
2018-04-30T13:27:06.080Z,95760.27
2018-04-30T13:30:29.703Z,95762.98
2018-04-30T13:33:52.628Z,95755.69
2018-04-30T13:37:15.517Z,95761.67
2018-04-30T13:40:38.372Z,95750.09
2018-04-30T13:44:01.290Z,95748.27
2018-04-30T13:47:24.434Z,95757.40
2018-04-30T13:50:47.425Z,95754.00
2018-04-30T13:54:10.390Z,95769.77
2018-04-30T13:57:33.767Z,95761.09
2018-04-30T14:00:57.439Z,95762.31
2018-04-30T14:04:20.371Z,95758.98
2018-04-30T14:07:43.257Z,95755.16
2018-04-30T14:11:07.047Z,95753.47
2018-04-30T14:14:30.654Z,95756.20
2018-04-30T14:17:53.487Z,95755.84
2018-04-30T14:21:16.318Z,95748.16
2018-04-30T14:24:39.968Z,95756.09
2018-04-30T14:28:03.714Z,95761.75
2018-04-30T14:31:26.574Z,95767.03
2018-04-30T14:34:49.441Z,95765.33
2018-04-30T14:38:13.057Z,95765.75
2018-04-30T14:41:35.890Z,95763.00
2018-04-30T14:44:58.833Z,95751.63
2018-04-30T14:48:21.704Z,95758.69
2018-04-30T14:51:44.551Z,95768.44
2018-04-30T14:55:07.382Z,95756.95
2018-04-30T14:58:30.199Z,95758.61
2018-04-30T15:01:53.056Z,95748.75
2018-04-30T15:05:15.957Z,95761.22
2018-04-30T15:08:38.758Z,95756.16
2018-04-30T15:12:01.584Z,95759.97
2018-04-30T15:15:25.198Z,95751.55
2018-04-30T15:18:48.052Z,95764.98
2018-04-30T15:22:10.900Z,95758.69
2018-04-30T15:25:33.789Z,95757.81
2018-04-30T15:28:56.620Z,95756.44
2018-04-30T15:32:20.234Z,95760.86
2018-04-30T15:35:43.246Z,95759.17
2018-04-30T15:39:06.846Z,95767.38
2018-04-30T15:42:30.463Z,95768.89
2018-04-30T15:45:54.527Z,95762.11
2018-04-30T15:49:18.580Z,95766.38
2018-04-30T15:52:42.213Z,95772.61
2018-04-30T15:56:05.114Z,95774.28
2018-04-30T17:22:22.041Z,95814.41
2018-04-30T17:25:45.467Z,95806.22
2018-04-30T17:29:08.311Z,95799.23
2018-04-30T17:32:31.226Z,95807.59
2018-04-30T17:35:54.380Z,95812.82
2018-04-30T17:39:20.051Z,95817.20
2018-04-30T17:42:42.902Z,95831.76
2018-04-30T17:46:06.745Z,95831.71
2018-04-30T17:49:32.272Z,95836.33
2018-04-30T17:52:56.773Z,95849.72
2018-04-30T17:56:19.810Z,95852.13
2018-04-30T17:59:42.750Z,95859.59
2018-04-30T18:03:05.590Z,95870.07
2018-04-30T18:06:28.504Z,95874.39
2018-04-30T18:09:51.384Z,95858.42
2018-04-30T18:13:15.095Z,95858.01
2018-04-30T18:16:38.043Z,95862.72
2018-04-30T18:20:00.927Z,95870.72
2018-04-30T19:46:17.450Z,96012.88
2018-04-30T19:49:40.341Z,96020.01
2018-04-30T19:53:04.852Z,96031.48
2018-04-30T19:56:27.799Z,96031.11
2018-04-30T20:29:42.879Z,96061.67
2018-04-30T20:33:05.813Z,96070.13
2018-04-30T20:36:29.453Z,96065.88
2018-04-30T20:39:52.480Z,96075.51
2018-04-30T20:43:15.384Z,96069.66
2018-04-30T20:46:39.075Z,96068.23
2018-04-30T20:50:01.933Z,96070.16
2018-04-30T20:53:24.872Z,96074.72
2018-04-30T20:56:48.510Z,96075.79
2018-04-30T21:00:12.166Z,96078.55
2018-04-30T21:03:35.875Z,96072.73
2018-04-30T21:06:58.915Z,96077.42
2018-04-30T21:10:21.796Z,96080.71
2018-04-30T21:13:45.498Z,96084.77
2018-04-30T21:17:08.379Z,96091.49
2018-04-30T21:20:31.247Z,96086.77
2018-04-30T21:23:54.177Z,96092.95
2018-04-30T21:27:17.038Z,96092.55
2018-04-30T21:30:39.881Z,96115.24
2018-04-30T21:34:02.803Z,96110.94
2018-04-30T21:37:25.653Z,96109.00
2018-04-30T21:40:48.579Z,96104.92
2018-04-30T21:44:11.480Z,96098.32
2018-04-30T21:47:34.514Z,96104.02
2018-04-30T21:50:57.415Z,96102.55
2018-04-30T21:54:20.322Z,96109.08
2018-04-30T23:20:36.366Z,96166.16
2018-04-30T23:23:59.277Z,96169.58
2018-04-30T23:27:22.142Z,96172.19
2018-04-30T23:30:45.002Z,96167.32
2018-04-30T23:34:08.635Z,96159.85
2018-04-30T23:37:31.543Z,96157.19
2018-04-30T23:40:54.403Z,96155.69
2018-04-30T23:44:17.303Z,96153.98
2018-04-30T23:47:40.157Z,96158.06
2018-04-30T23:51:03.013Z,96160.55
2018-04-30T23:54:25.858Z,96159.67
2018-04-30T23:57:48.838Z,96157.31
